createdAt,value
2024-02-13T00:00:39.518Z,23.81
2024-02-13T00:01:39.493Z,23.81
2024-02-13T00:02:39.549Z,23.81
2024-02-13T00:03:39.539Z,23.81
2024-02-13T00:04:39.507Z,23.82
2024-02-13T00:05:39.534Z,23.81
2024-02-13T00:06:39.491Z,23.81
2024-02-13T00:07:39.606Z,23.81
2024-02-13T00:08:45.332Z,23.81
2024-02-13T00:09:40.572Z,23.80
2024-02-13T00:10:39.536Z,23.80
2024-02-13T00:11:39.563Z,23.81
2024-02-13T00:12:39.571Z,23.80
2024-02-13T00:13:39.537Z,23.81
2024-02-13T00:14:39.602Z,23.81
2024-02-13T00:15:39.545Z,23.81
2024-02-13T00:16:39.558Z,23.82
2024-02-13T00:17:39.592Z,23.81
2024-02-13T00:18:39.605Z,23.81
2024-02-13T00:19:39.576Z,23.81
2024-02-13T00:20:39.673Z,23.81
2024-02-13T00:21:39.688Z,23.81
2024-02-13T00:22:39.708Z,23.81
2024-02-13T00:23:39.805Z,23.81
2024-02-13T00:24:39.812Z,23.81
2024-02-13T00:25:39.875Z,23.80
2024-02-13T00:26:39.942Z,23.80
2024-02-13T00:27:39.942Z,23.80
2024-02-13T00:28:39.990Z,23.81
2024-02-13T00:29:40.197Z,23.81
2024-02-13T00:30:40.114Z,23.81
2024-02-13T00:31:40.168Z,23.82
2024-02-13T00:32:40.380Z,23.81
2024-02-13T00:33:40.396Z,23.81
2024-02-13T00:34:40.323Z,23.81
2024-02-13T00:35:40.360Z,23.81
2024-02-13T00:36:40.400Z,23.82
2024-02-13T00:37:40.406Z,23.81
2024-02-13T00:38:40.556Z,23.81
2024-02-13T00:39:40.648Z,23.81
2024-02-13T00:40:40.591Z,23.81
2024-02-13T00:41:40.719Z,23.81
2024-02-13T00:42:40.676Z,23.80
2024-02-13T00:43:40.774Z,23.80
2024-02-13T00:44:40.800Z,23.80
2024-02-13T00:45:40.793Z,23.81
2024-02-13T00:46:40.866Z,23.80
2024-02-13T00:47:41.020Z,23.81
2024-02-13T00:48:41.077Z,23.81
2024-02-13T00:49:41.055Z,23.81
2024-02-13T00:50:41.105Z,23.81
2024-02-13T00:51:41.080Z,23.82
2024-02-13T00:52:41.216Z,23.82
2024-02-13T00:53:41.275Z,23.81
2024-02-13T00:54:41.672Z,23.82
2024-02-13T00:55:41.272Z,23.82
2024-02-13T00:56:41.429Z,23.82
2024-02-13T00:57:41.385Z,23.82
2024-02-13T00:58:41.428Z,23.81
2024-02-13T00:59:41.517Z,23.81
2024-02-13T01:00:41.571Z,23.81
2024-02-13T01:01:41.565Z,23.81
2024-02-13T01:02:41.752Z,23.81
2024-02-13T01:03:41.720Z,23.81
2024-02-13T01:04:41.749Z,23.81
2024-02-13T01:05:41.777Z,23.81
2024-02-13T01:06:41.855Z,23.80
2024-02-13T01:07:41.832Z,23.81
2024-02-13T01:08:41.949Z,23.81
2024-02-13T01:09:42.154Z,23.81
2024-02-13T01:10:41.985Z,23.81
2024-02-13T01:11:42.167Z,23.81
2024-02-13T01:12:42.056Z,23.80
2024-02-13T01:13:42.132Z,23.81
2024-02-13T01:14:42.193Z,23.80
2024-02-13T01:15:42.197Z,23.80
2024-02-13T01:16:42.237Z,23.81
2024-02-13T01:17:42.337Z,23.80
2024-02-13T01:18:42.405Z,23.80
2024-02-13T01:19:42.727Z,23.80
2024-02-13T01:20:42.442Z,23.80
2024-02-13T01:21:42.462Z,23.81
2024-02-13T01:22:42.557Z,23.80
2024-02-13T01:23:42.660Z,23.81
2024-02-13T01:24:42.648Z,23.81
2024-02-13T01:25:42.695Z,23.81
2024-02-13T01:26:42.804Z,23.80
2024-02-13T01:27:42.790Z,23.81
2024-02-13T01:28:42.834Z,23.80
2024-02-13T01:29:42.982Z,23.80
2024-02-13T01:30:42.965Z,23.80
2024-02-13T01:31:43.011Z,23.81
2024-02-13T01:32:43.116Z,23.80
2024-02-13T01:33:43.557Z,23.80
2024-02-13T01:34:43.685Z,23.80
2024-02-13T01:35:43.245Z,23.80
2024-02-13T01:36:43.282Z,23.80
2024-02-13T01:37:43.365Z,23.80
2024-02-13T01:38:43.425Z,23.80
2024-02-13T01:39:43.421Z,23.80
2024-02-13T01:40:43.468Z,23.80
2024-02-13T01:41:43.611Z,23.80
2024-02-13T01:42:43.554Z,23.81
2024-02-13T01:43:43.638Z,23.80
2024-02-13T01:44:43.703Z,23.80
2024-02-13T01:45:43.725Z,23.80
2024-02-13T01:46:43.856Z,23.80
2024-02-13T01:47:44.048Z,23.80
2024-02-13T01:48:43.999Z,23.79
2024-02-13T01:49:44.189Z,23.80
2024-02-13T01:50:44.016Z,23.79
2024-02-13T01:51:44.022Z,23.80
2024-02-13T01:52:44.076Z,23.80
2024-02-13T01:53:44.213Z,23.80
2024-02-13T01:54:44.157Z,23.80
2024-02-13T01:55:44.222Z,23.80
2024-02-13T01:56:44.284Z,23.81
2024-02-13T01:57:44.305Z,23.80
2024-02-13T01:58:44.348Z,23.80
2024-02-13T01:59:44.764Z,23.81
2024-02-13T02:00:44.488Z,23.81
2024-02-13T02:01:44.496Z,23.80
2024-02-13T02:02:44.594Z,23.81
2024-02-13T02:03:44.694Z,23.80
2024-02-13T02:04:44.690Z,23.81
2024-02-13T02:05:44.817Z,23.81
2024-02-13T02:06:44.801Z,23.81
2024-02-13T02:07:44.819Z,23.81
2024-02-13T02:08:44.987Z,23.81
2024-02-13T02:09:44.937Z,23.82
2024-02-13T02:10:44.985Z,23.81
2024-02-13T02:11:45.057Z,23.81
2024-02-13T02:12:57.798Z,23.79
2024-02-13T02:13:57.813Z,23.80
2024-02-13T02:14:57.847Z,23.81
2024-02-13T02:15:57.739Z,23.80
2024-02-13T02:16:57.777Z,23.80
2024-02-13T02:17:57.975Z,23.80
2024-02-13T02:18:58.095Z,23.81
2024-02-13T02:19:57.787Z,23.80
2024-02-13T02:20:57.780Z,23.81
2024-02-13T02:21:57.813Z,23.81
2024-02-13T02:22:57.820Z,23.82
2024-02-13T02:23:57.836Z,23.81
2024-02-13T02:24:57.768Z,23.81
2024-02-13T02:25:57.866Z,23.81
2024-02-13T02:26:57.839Z,23.81
2024-02-13T02:27:57.806Z,23.81
2024-02-13T02:28:57.803Z,23.80
2024-02-13T02:29:57.847Z,23.81
2024-02-13T02:30:57.830Z,23.81
2024-02-13T02:31:57.834Z,23.81
2024-02-13T02:32:57.917Z,23.81
2024-02-13T02:33:57.937Z,23.82
2024-02-13T02:34:57.791Z,23.81
2024-02-13T02:35:57.829Z,23.81
2024-02-13T02:36:57.799Z,23.81
2024-02-13T02:37:57.810Z,23.81
2024-02-13T02:38:57.858Z,23.81
2024-02-13T02:39:57.846Z,23.82
2024-02-13T02:40:57.835Z,23.82
2024-02-13T02:41:57.945Z,23.82
2024-02-13T02:42:58.003Z,23.82
2024-02-13T02:43:57.992Z,23.82
2024-02-13T02:44:58.044Z,23.82
2024-02-13T02:45:58.105Z,23.82
2024-02-13T02:46:58.125Z,23.82
2024-02-13T02:47:58.243Z,23.82
2024-02-13T02:48:58.407Z,23.82
2024-02-13T02:49:58.310Z,23.82
2024-02-13T02:50:58.430Z,23.81
2024-02-13T02:51:58.426Z,23.82
2024-02-13T02:52:58.494Z,23.82
2024-02-13T02:53:58.566Z,23.81
2024-02-13T02:54:58.568Z,23.81
2024-02-13T02:55:58.665Z,23.81
2024-02-13T02:56:58.690Z,23.81
2024-02-13T02:57:58.748Z,23.81
2024-02-13T02:58:58.894Z,23.81
2024-02-13T02:59:58.905Z,23.81
2024-02-13T03:00:58.928Z,23.81
2024-02-13T03:01:58.981Z,23.81
2024-02-13T03:02:59.209Z,23.82
2024-02-13T03:03:59.101Z,23.81
2024-02-13T03:04:59.141Z,23.81
2024-02-13T03:05:59.237Z,23.81
2024-02-13T03:06:59.295Z,23.81
2024-02-13T03:07:59.304Z,23.81
2024-02-13T03:08:59.405Z,23.81
2024-02-13T03:09:59.431Z,23.81
2024-02-13T03:10:59.417Z,23.81
2024-02-13T03:11:59.519Z,23.81
2024-02-13T03:12:59.550Z,23.81
2024-02-13T03:13:59.924Z,23.81
2024-02-13T03:14:59.668Z,23.80
2024-02-13T03:15:59.725Z,23.81
2024-02-13T03:16:59.759Z,23.81
2024-02-13T03:17:59.910Z,23.81
2024-02-13T03:18:59.957Z,23.81
2024-02-13T03:19:59.953Z,23.81
2024-02-13T03:21:00.038Z,23.81
2024-02-13T03:22:00.042Z,23.80
2024-02-13T03:23:00.159Z,23.82
2024-02-13T03:24:00.154Z,23.81
2024-02-13T03:25:02.721Z,23.82
2024-02-13T03:26:00.194Z,23.81
2024-02-13T03:27:00.212Z,23.81
2024-02-13T03:28:00.238Z,23.82
2024-02-13T03:29:00.220Z,23.81
2024-02-13T03:30:00.266Z,23.82
2024-02-13T03:31:00.235Z,23.81
2024-02-13T03:32:00.200Z,23.81
2024-02-13T03:33:00.334Z,23.81
2024-02-13T03:34:00.530Z,23.80
2024-02-13T03:35:00.248Z,23.81
2024-02-13T03:36:00.235Z,23.80
2024-02-13T03:37:00.233Z,23.81
2024-02-13T03:38:00.239Z,23.80
2024-02-13T03:39:00.273Z,23.81
2024-02-13T03:40:00.281Z,23.81
2024-02-13T03:41:00.205Z,23.82
2024-02-13T03:42:00.243Z,23.81
2024-02-13T03:43:00.231Z,23.80
2024-02-13T03:44:00.278Z,23.81
2024-02-13T03:45:00.309Z,23.81
2024-02-13T03:46:00.253Z,23.81
2024-02-13T03:47:00.256Z,23.81
2024-02-13T03:48:00.410Z,23.82
2024-02-13T03:49:00.356Z,23.82
2024-02-13T03:50:00.330Z,23.82
2024-02-13T03:51:00.336Z,23.82
2024-02-13T03:52:00.340Z,23.82
2024-02-13T03:53:00.340Z,23.82
2024-02-13T03:54:00.908Z,23.81
2024-02-13T03:55:00.507Z,23.81
2024-02-13T03:56:00.525Z,23.82
2024-02-13T03:57:00.552Z,23.82
2024-02-13T03:58:00.617Z,23.82
2024-02-13T03:59:00.700Z,23.82
2024-02-13T04:00:01.027Z,23.82
2024-02-13T04:01:00.865Z,23.83
2024-02-13T04:02:00.881Z,23.82
2024-02-13T04:03:00.870Z,23.82
2024-02-13T04:04:00.980Z,23.82
2024-02-13T04:05:00.963Z,23.82
2024-02-13T04:06:01.120Z,23.83
2024-02-13T04:07:01.027Z,23.82
2024-02-13T04:08:01.116Z,23.83
2024-02-13T04:09:01.139Z,23.82
2024-02-13T04:10:01.483Z,23.82
2024-02-13T04:11:01.252Z,23.81
2024-02-13T04:12:01.316Z,23.81
2024-02-13T04:13:01.355Z,23.80
2024-02-13T04:14:01.376Z,23.81
2024-02-13T04:15:02.019Z,23.81
2024-02-13T04:16:01.497Z,23.81
2024-02-13T04:17:01.550Z,23.81
2024-02-13T04:18:01.665Z,23.82
2024-02-13T04:19:01.745Z,23.81
2024-02-13T04:20:01.762Z,23.82
2024-02-13T04:21:01.761Z,23.82
2024-02-13T04:22:01.790Z,23.82
2024-02-13T04:23:01.859Z,23.82
2024-02-13T04:24:01.948Z,23.82
2024-02-13T04:25:02.009Z,23.82
2024-02-13T04:26:02.029Z,23.82
2024-02-13T04:27:02.079Z,23.82
2024-02-13T04:28:02.139Z,23.82
2024-02-13T04:29:02.146Z,23.83
2024-02-13T04:30:02.529Z,23.82
2024-02-13T04:31:02.299Z,23.82
2024-02-13T04:32:02.297Z,23.82
2024-02-13T04:33:09.851Z,23.80
2024-02-13T04:34:09.596Z,23.81
2024-02-13T04:35:09.731Z,23.81
2024-02-13T04:36:09.604Z,23.81
2024-02-13T04:37:09.612Z,23.81
2024-02-13T04:38:09.692Z,23.82
2024-02-13T04:39:09.735Z,23.82
2024-02-13T04:40:12.264Z,23.82
2024-02-13T04:41:09.689Z,23.82
2024-02-13T04:42:09.663Z,23.81
2024-02-13T04:43:09.652Z,23.82
2024-02-13T04:44:09.690Z,23.81
2024-02-13T04:45:09.650Z,23.82
2024-02-13T04:46:09.639Z,23.82
2024-02-13T04:47:09.731Z,23.82
2024-02-13T04:48:09.791Z,23.82
2024-02-13T04:49:09.768Z,23.82
2024-02-13T04:50:11.388Z,23.82
2024-02-13T04:51:09.665Z,23.83
2024-02-13T04:52:09.684Z,23.82
2024-02-13T04:53:09.627Z,23.82
2024-02-13T04:54:09.637Z,23.82
2024-02-13T04:55:09.637Z,23.82
2024-02-13T04:56:09.685Z,23.82
2024-02-13T04:57:09.650Z,23.82
2024-02-13T04:58:09.661Z,23.82
2024-02-13T04:59:09.699Z,23.82
2024-02-13T05:00:09.664Z,23.82
2024-02-13T05:01:09.643Z,23.83
2024-02-13T05:02:09.752Z,23.82
2024-02-13T05:03:09.661Z,23.83
2024-02-13T05:04:09.758Z,23.83
2024-02-13T05:05:09.811Z,23.83
2024-02-13T05:06:09.849Z,23.83
2024-02-13T05:07:09.676Z,23.82
2024-02-13T05:08:09.692Z,23.83
2024-02-13T05:09:09.686Z,23.82
2024-02-13T05:10:09.710Z,23.82
2024-02-13T05:11:09.667Z,23.82
2024-02-13T05:12:09.712Z,23.81
2024-02-13T05:13:09.677Z,23.81
2024-02-13T05:14:09.777Z,23.82
2024-02-13T05:15:09.701Z,23.81
2024-02-13T05:16:09.689Z,23.81
2024-02-13T05:17:09.702Z,23.82
2024-02-13T05:18:09.815Z,23.83
2024-02-13T05:19:09.821Z,23.82
2024-02-13T05:20:09.709Z,23.82
2024-02-13T05:21:09.708Z,23.82
2024-02-13T05:22:09.739Z,23.82
2024-02-13T05:23:09.709Z,23.82
2024-02-13T05:24:09.690Z,23.82
2024-02-13T05:25:09.706Z,23.82
2024-02-13T05:26:09.717Z,23.81
2024-02-13T05:27:09.722Z,23.81
2024-02-13T05:28:09.747Z,23.81
2024-02-13T05:29:09.755Z,23.81
2024-02-13T05:30:09.731Z,23.81
2024-02-13T05:31:09.759Z,23.82
2024-02-13T05:32:09.789Z,23.81
2024-02-13T05:33:09.816Z,23.81
2024-02-13T05:34:09.872Z,23.81
2024-02-13T05:35:09.778Z,23.82
2024-02-13T05:36:09.740Z,23.82
2024-02-13T05:37:09.728Z,23.83
2024-02-13T05:38:09.747Z,23.81
2024-02-13T05:39:09.752Z,23.82
2024-02-13T05:40:10.222Z,23.82
2024-02-13T05:41:09.862Z,23.82
2024-02-13T05:42:09.937Z,23.82
2024-02-13T05:43:09.929Z,23.82
2024-02-13T05:44:10.038Z,23.82
2024-02-13T05:45:10.081Z,23.82
2024-02-13T05:46:10.108Z,23.82
2024-02-13T05:47:10.165Z,23.82
2024-02-13T05:48:10.266Z,23.82
2024-02-13T05:49:10.258Z,23.82
2024-02-13T05:50:10.340Z,23.82
2024-02-13T05:51:10.346Z,23.82
2024-02-13T05:52:10.426Z,23.82
2024-02-13T05:53:10.596Z,23.82
2024-02-13T05:54:10.603Z,23.82
2024-02-13T05:55:10.731Z,23.82
2024-02-13T05:56:12.457Z,23.82
2024-02-13T05:57:10.707Z,23.82
2024-02-13T05:58:10.753Z,23.82
2024-02-13T05:59:10.946Z,23.81
2024-02-13T06:00:11.237Z,23.82
2024-02-13T06:01:11.002Z,23.82
2024-02-13T06:02:11.048Z,23.82
2024-02-13T06:03:11.031Z,23.82
2024-02-13T06:04:11.129Z,23.82
2024-02-13T06:05:11.287Z,23.82
2024-02-13T06:06:11.198Z,23.82
2024-02-13T06:07:11.192Z,23.81
2024-02-13T06:08:11.271Z,23.82
2024-02-13T06:09:11.309Z,23.82
2024-02-13T06:10:11.348Z,23.81
2024-02-13T06:11:11.491Z,23.81
2024-02-13T06:12:11.530Z,23.81
2024-02-13T06:13:12.227Z,23.81
2024-02-13T06:14:11.579Z,23.81
2024-02-13T06:15:11.614Z,23.81
2024-02-13T06:16:11.617Z,23.81
2024-02-13T06:17:11.688Z,23.81
2024-02-13T06:18:11.851Z,23.81
2024-02-13T06:19:11.828Z,23.81
2024-02-13T06:20:12.262Z,23.81
2024-02-13T06:21:11.842Z,23.80
2024-02-13T06:22:11.929Z,23.80
2024-02-13T06:23:11.976Z,23.81
2024-02-13T06:24:12.013Z,23.81
2024-02-13T06:25:12.080Z,23.80
2024-02-13T06:26:12.126Z,23.81
2024-02-13T06:27:12.160Z,23.81
2024-02-13T06:28:12.232Z,23.81
2024-02-13T06:29:12.364Z,23.81
2024-02-13T06:30:12.318Z,23.81
2024-02-13T06:31:12.370Z,23.82
2024-02-13T06:32:12.418Z,23.82
2024-02-13T06:33:12.642Z,23.81
2024-02-13T06:34:12.670Z,23.82
2024-02-13T06:35:12.843Z,23.82
2024-02-13T06:36:12.622Z,23.81
2024-02-13T06:37:12.684Z,23.81
2024-02-13T06:38:12.757Z,23.81
2024-02-13T06:39:12.862Z,23.81
2024-02-13T06:40:12.848Z,23.81
2024-02-13T06:41:13.017Z,23.82
2024-02-13T06:42:13.030Z,23.81
2024-02-13T06:43:12.975Z,23.81
2024-02-13T06:44:13.125Z,23.81
2024-02-13T06:45:13.138Z,23.81
2024-02-13T06:46:13.144Z,23.81
2024-02-13T06:47:13.266Z,23.81
2024-02-13T06:48:13.348Z,23.81
2024-02-13T06:49:13.375Z,23.81
2024-02-13T06:50:14.305Z,23.82
2024-02-13T06:51:13.436Z,23.81
2024-02-13T06:52:13.473Z,23.82
2024-02-13T06:53:13.524Z,23.82
2024-02-13T06:54:13.581Z,23.81
2024-02-13T06:55:13.637Z,23.81
2024-02-13T06:56:13.741Z,23.81
2024-02-13T06:57:13.743Z,23.82
2024-02-13T06:58:13.801Z,23.82
2024-02-13T06:59:13.911Z,23.81
2024-02-13T07:00:14.382Z,23.83
2024-02-13T07:01:14.025Z,23.81
2024-02-13T07:02:14.025Z,23.82
2024-02-13T07:03:14.039Z,23.83
2024-02-13T07:04:14.140Z,23.81
2024-02-13T07:05:14.236Z,23.82
2024-02-13T07:06:14.362Z,23.82
2024-02-13T07:07:25.621Z,23.82
2024-02-13T07:08:15.377Z,23.82
2024-02-13T07:09:14.314Z,23.82
2024-02-13T07:10:14.356Z,23.82
2024-02-13T07:11:14.293Z,23.83
2024-02-13T07:12:14.273Z,23.83
2024-02-13T07:13:14.225Z,23.82
2024-02-13T07:14:14.267Z,23.83
2024-02-13T07:15:14.330Z,23.83
2024-02-13T07:16:14.301Z,23.82
2024-02-13T07:17:14.277Z,23.83
2024-02-13T07:18:14.377Z,23.83
2024-02-13T07:19:14.574Z,23.83
2024-02-13T07:20:14.445Z,23.82
2024-02-13T07:21:14.521Z,23.82
2024-02-13T07:22:14.467Z,23.82
2024-02-13T07:23:14.531Z,23.82
2024-02-13T07:24:14.611Z,23.82
2024-02-13T07:25:14.661Z,23.82
2024-02-13T07:26:14.706Z,23.82
2024-02-13T07:27:14.734Z,23.82
2024-02-13T07:28:14.738Z,23.81
2024-02-13T07:29:14.858Z,23.81
2024-02-13T07:30:15.271Z,23.81
2024-02-13T07:31:14.899Z,23.82
2024-02-13T07:32:14.982Z,23.82
2024-02-13T07:33:15.147Z,23.82
2024-02-13T07:34:15.223Z,23.82
2024-02-13T07:35:15.096Z,23.82
2024-02-13T07:36:15.162Z,23.82
2024-02-13T07:37:15.164Z,23.82
2024-02-13T07:38:15.221Z,23.83
2024-02-13T07:39:15.269Z,23.82
2024-02-13T07:40:15.795Z,23.82
2024-02-13T07:41:15.371Z,23.82
2024-02-13T07:42:15.402Z,23.82
2024-02-13T07:43:15.463Z,23.82
2024-02-13T07:44:15.586Z,23.82
2024-02-13T07:45:15.624Z,23.82
2024-02-13T07:46:15.634Z,23.82
2024-02-13T07:47:15.713Z,23.82
2024-02-13T07:48:15.704Z,23.83
2024-02-13T07:49:15.782Z,23.83
2024-02-13T07:50:16.479Z,23.83
2024-02-13T07:51:15.832Z,23.84
2024-02-13T07:52:15.902Z,23.83
2024-02-13T07:53:15.941Z,23.83
2024-02-13T07:54:15.994Z,23.83
2024-02-13T07:55:16.055Z,23.83
2024-02-13T07:56:16.150Z,23.83
2024-02-13T07:57:16.113Z,23.82
2024-02-13T07:58:16.197Z,23.82
2024-02-13T07:59:16.259Z,23.82
2024-02-13T08:00:16.302Z,23.83
2024-02-13T08:01:16.420Z,23.83
2024-02-13T08:02:16.401Z,23.82
2024-02-13T08:03:16.434Z,23.82
2024-02-13T08:04:16.527Z,23.82
2024-02-13T08:05:16.988Z,23.82
2024-02-13T08:06:16.709Z,23.83
2024-02-13T08:07:16.656Z,23.82
2024-02-13T08:08:16.729Z,23.82
2024-02-13T08:09:16.712Z,23.82
2024-02-13T08:10:16.778Z,23.82
2024-02-13T08:11:16.862Z,23.81
2024-02-13T08:12:17.165Z,23.81
2024-02-13T08:13:16.963Z,23.82
2024-02-13T08:14:16.997Z,23.82
2024-02-13T08:15:17.079Z,23.82
2024-02-13T08:16:17.083Z,23.82
2024-02-13T08:17:17.148Z,23.82
2024-02-13T08:18:17.262Z,23.82
2024-02-13T08:19:17.316Z,23.82
2024-02-13T08:20:17.402Z,23.82
2024-02-13T08:21:17.425Z,23.82
2024-02-13T08:22:17.432Z,23.82
2024-02-13T08:23:17.430Z,23.83
2024-02-13T08:24:19.114Z,23.82
2024-02-13T08:25:17.545Z,23.82
2024-02-13T08:26:17.678Z,23.82
2024-02-13T08:27:17.672Z,23.82
2024-02-13T08:28:17.672Z,23.82
2024-02-13T08:29:17.847Z,23.81
2024-02-13T08:30:17.846Z,23.82
2024-02-13T08:31:17.843Z,23.82
2024-02-13T08:32:17.906Z,23.82
2024-02-13T08:33:18.153Z,23.82
2024-02-13T08:34:18.114Z,23.83
2024-02-13T08:35:18.154Z,23.83
2024-02-13T08:36:18.078Z,23.84
2024-02-13T08:37:18.147Z,23.84
2024-02-13T08:38:18.238Z,23.84
2024-02-13T08:39:18.222Z,23.84
2024-02-13T08:40:18.297Z,23.84
2024-02-13T08:41:18.341Z,23.84
2024-02-13T08:42:18.357Z,23.84
2024-02-13T08:43:18.429Z,23.84
2024-02-13T08:44:18.473Z,23.84
2024-02-13T08:45:19.033Z,23.85
2024-02-13T08:46:18.580Z,23.85
2024-02-13T08:47:18.732Z,23.85
2024-02-13T08:48:18.798Z,23.85
2024-02-13T08:49:19.089Z,23.86
2024-02-13T08:50:18.938Z,23.86
2024-02-13T08:51:18.907Z,23.87
2024-02-13T08:52:18.872Z,23.87
2024-02-13T08:53:18.962Z,23.87
2024-02-13T08:54:18.986Z,23.87
2024-02-13T08:55:19.028Z,23.87
2024-02-13T08:56:19.179Z,23.88
2024-02-13T08:57:19.151Z,23.88
2024-02-13T08:58:19.150Z,23.87
2024-02-13T08:59:19.219Z,23.87
2024-02-13T09:00:19.340Z,23.87
2024-02-13T09:01:19.372Z,23.87
2024-02-13T09:02:19.397Z,23.87
2024-02-13T09:03:19.403Z,23.87
2024-02-13T09:04:19.540Z,23.87
2024-02-13T09:05:19.720Z,23.87
2024-02-13T09:06:19.634Z,23.87
2024-02-13T09:07:19.594Z,23.88
2024-02-13T09:08:19.723Z,23.87
2024-02-13T09:09:19.648Z,23.87
2024-02-13T09:10:19.805Z,23.87
2024-02-13T09:11:19.755Z,23.87
2024-02-13T09:12:19.737Z,23.87
2024-02-13T09:13:19.783Z,23.87
2024-02-13T09:14:19.852Z,23.87
2024-02-13T09:15:19.905Z,23.87
2024-02-13T09:16:19.952Z,23.88
2024-02-13T09:17:20.160Z,23.88
2024-02-13T09:18:20.353Z,23.88
2024-02-13T09:19:20.135Z,23.88
2024-02-13T09:20:20.338Z,23.88
2024-02-13T09:21:20.165Z,23.89
2024-02-13T09:22:20.228Z,23.89
2024-02-13T09:23:20.323Z,23.91
2024-02-13T09:24:20.326Z,23.92
2024-02-13T09:25:20.378Z,23.93
2024-02-13T09:26:20.475Z,23.93
2024-02-13T09:27:20.408Z,23.95
2024-02-13T09:28:20.488Z,23.96
2024-02-13T09:29:20.570Z,23.96
2024-02-13T09:30:20.569Z,23.97
2024-02-13T09:31:20.617Z,23.98
2024-02-13T09:32:20.647Z,23.99
2024-02-13T09:33:20.701Z,23.99
2024-02-13T09:34:20.795Z,24.01
2024-02-13T09:35:20.840Z,24.01
2024-02-13T09:36:20.812Z,24.02
2024-02-13T09:37:20.830Z,24.03
2024-02-13T09:38:20.906Z,24.04
2024-02-13T09:39:20.896Z,24.05
2024-02-13T09:40:20.912Z,24.05
2024-02-13T09:41:21.006Z,24.05
2024-02-13T09:42:20.960Z,24.05
2024-02-13T09:43:21.030Z,24.06
2024-02-13T09:44:21.148Z,24.07
2024-02-13T09:45:21.336Z,24.08
2024-02-13T09:46:21.084Z,24.09
2024-02-13T09:47:21.162Z,24.09
2024-02-13T09:48:21.276Z,24.09
2024-02-13T09:49:21.168Z,24.10
2024-02-13T09:50:21.221Z,24.11
2024-02-13T09:51:21.192Z,24.12
2024-02-13T09:52:21.235Z,24.11
2024-02-13T09:53:21.247Z,24.13
2024-02-13T09:54:21.277Z,24.13
2024-02-13T09:55:21.836Z,24.14
2024-02-13T09:56:21.396Z,24.15
2024-02-13T09:57:21.369Z,24.15
2024-02-13T09:58:21.394Z,24.16
2024-02-13T09:59:21.449Z,24.16
2024-02-13T10:00:21.879Z,24.17
2024-02-13T10:01:21.504Z,24.18
2024-02-13T10:02:21.481Z,24.18
2024-02-13T10:03:21.543Z,24.18
2024-02-13T10:04:21.553Z,24.19
2024-02-13T10:05:21.616Z,24.20
2024-02-13T10:06:21.624Z,24.20
2024-02-13T10:07:21.543Z,24.22
2024-02-13T10:08:21.659Z,24.22
2024-02-13T10:09:21.590Z,24.24
2024-02-13T10:10:21.875Z,24.24
2024-02-13T10:11:21.681Z,24.25
2024-02-13T10:12:21.692Z,24.25
2024-02-13T10:13:21.653Z,24.25
2024-02-13T10:14:21.732Z,24.26
2024-02-13T10:15:21.720Z,24.27
2024-02-13T10:16:21.733Z,24.28
2024-02-13T10:17:21.835Z,24.28
2024-02-13T10:18:21.971Z,24.29
2024-02-13T10:19:21.831Z,24.29
2024-02-13T10:20:21.963Z,24.30
2024-02-13T10:21:21.802Z,24.30
2024-02-13T10:22:21.832Z,24.30
2024-02-13T10:23:21.886Z,24.31
2024-02-13T10:24:21.891Z,24.32
2024-02-13T10:25:24.875Z,24.32
2024-02-13T10:26:21.954Z,24.32
2024-02-13T10:27:21.891Z,24.33
2024-02-13T10:28:21.869Z,24.34
2024-02-13T10:29:21.911Z,24.34
2024-02-13T10:30:21.918Z,24.34
2024-02-13T10:31:21.864Z,24.34
2024-02-13T10:32:21.882Z,24.36
2024-02-13T10:33:21.991Z,24.35
2024-02-13T10:34:21.867Z,24.35
2024-02-13T10:35:22.456Z,24.36
2024-02-13T10:36:21.931Z,24.37
2024-02-13T10:37:21.892Z,24.38
2024-02-13T10:38:21.963Z,24.38
2024-02-13T10:39:21.894Z,24.38
2024-02-13T10:40:21.926Z,24.37
2024-02-13T10:41:21.913Z,24.37
2024-02-13T10:42:21.949Z,24.39
2024-02-13T10:43:21.910Z,24.39
2024-02-13T10:44:22.069Z,24.40
2024-02-13T10:45:22.345Z,24.40
2024-02-13T10:46:21.896Z,24.39
2024-02-13T10:47:22.021Z,24.40
2024-02-13T10:48:22.104Z,24.40
2024-02-13T10:49:22.000Z,24.41
2024-02-13T10:50:22.108Z,24.41
2024-02-13T10:51:21.912Z,24.42
2024-02-13T10:52:21.944Z,24.42
2024-02-13T10:53:21.952Z,24.42
2024-02-13T10:54:21.950Z,24.42
2024-02-13T10:55:22.337Z,24.42
2024-02-13T10:56:21.962Z,24.43
2024-02-13T10:57:21.932Z,24.42
2024-02-13T10:58:28.204Z,24.42
2024-02-13T10:59:22.966Z,24.42
2024-02-13T11:00:22.093Z,24.43
2024-02-13T11:01:23.948Z,24.43
2024-02-13T11:02:22.112Z,24.43
2024-02-13T11:03:22.040Z,24.44
2024-02-13T11:04:22.100Z,24.45
2024-02-13T11:05:22.417Z,24.45
2024-02-13T11:06:22.195Z,24.46
2024-02-13T11:07:22.028Z,24.46
2024-02-13T11:08:22.134Z,24.46
2024-02-13T11:09:22.090Z,24.46
2024-02-13T11:10:22.053Z,24.46
2024-02-13T11:11:22.092Z,24.47
2024-02-13T11:12:22.128Z,24.48
2024-02-13T11:13:22.115Z,24.47
2024-02-13T11:14:22.162Z,24.48
2024-02-13T11:15:22.103Z,24.48
2024-02-13T11:16:22.138Z,24.49
2024-02-13T11:17:22.323Z,24.49
2024-02-13T11:18:22.198Z,24.50
2024-02-13T11:19:22.184Z,24.49
2024-02-13T11:20:22.406Z,24.49
2024-02-13T11:21:22.314Z,24.49
2024-02-13T11:22:22.187Z,24.50
2024-02-13T11:23:22.234Z,24.49
2024-02-13T11:24:22.215Z,24.48
2024-02-13T11:25:22.207Z,24.48
2024-02-13T11:26:22.221Z,24.49
2024-02-13T11:27:28.085Z,24.49
2024-02-13T11:28:23.316Z,24.50
2024-02-13T11:29:22.256Z,24.50
2024-02-13T11:30:22.260Z,24.50
2024-02-13T11:31:22.190Z,24.49
2024-02-13T11:32:22.323Z,24.49
2024-02-13T11:33:22.347Z,24.49
2024-02-13T11:34:22.358Z,24.48
2024-02-13T11:35:22.494Z,24.48
2024-02-13T11:36:22.611Z,24.48
2024-02-13T11:37:22.233Z,24.48
2024-02-13T11:38:22.258Z,24.48
2024-02-13T11:39:22.220Z,24.47
2024-02-13T11:40:22.227Z,24.47
2024-02-13T11:41:22.240Z,24.47
2024-02-13T11:42:22.233Z,24.47
2024-02-13T11:43:22.228Z,24.46
2024-02-13T11:44:22.327Z,24.45
2024-02-13T11:45:22.242Z,24.45
2024-02-13T11:46:22.253Z,24.45
2024-02-13T11:47:22.528Z,24.44
2024-02-13T11:48:22.443Z,24.45
2024-02-13T11:49:22.652Z,24.44
2024-02-13T11:50:22.376Z,24.46
2024-02-13T11:51:22.302Z,24.46
2024-02-13T11:52:22.283Z,24.46
2024-02-13T11:53:22.402Z,24.46
2024-02-13T11:54:22.244Z,24.46
2024-02-13T11:55:22.348Z,24.46
2024-02-13T11:56:22.277Z,24.46
2024-02-13T11:57:22.379Z,24.47
2024-02-13T11:58:22.303Z,24.46
2024-02-13T11:59:22.297Z,24.46
2024-02-13T12:00:22.340Z,24.46
2024-02-13T12:01:22.261Z,24.45
2024-02-13T12:02:22.343Z,24.46
2024-02-13T12:03:22.267Z,24.46
2024-02-13T12:04:22.286Z,24.46
2024-02-13T12:05:22.544Z,24.46
2024-02-13T12:06:22.307Z,24.47
2024-02-13T12:07:22.274Z,24.48
2024-02-13T12:08:22.313Z,24.47
2024-02-13T12:09:22.258Z,24.48
2024-02-13T12:10:23.413Z,24.48
2024-02-13T12:11:22.354Z,24.49
2024-02-13T12:12:22.297Z,24.50
2024-02-13T12:13:22.290Z,24.50
2024-02-13T12:14:22.331Z,24.51
2024-02-13T12:15:22.307Z,24.51
2024-02-13T12:16:22.279Z,24.52
2024-02-13T12:17:22.809Z,24.53
2024-02-13T12:18:22.428Z,24.52
2024-02-13T12:19:22.283Z,24.53
2024-02-13T12:20:22.427Z,24.52
2024-02-13T12:21:22.297Z,24.53
2024-02-13T12:22:22.331Z,24.53
2024-02-13T12:23:22.391Z,24.53
2024-02-13T12:24:22.370Z,24.54
2024-02-13T12:25:22.435Z,24.54
2024-02-13T12:26:22.510Z,24.54
2024-02-13T12:27:22.487Z,24.53
2024-02-13T12:28:22.490Z,24.53
2024-02-13T12:29:22.620Z,24.52
2024-02-13T12:30:22.910Z,24.52
2024-02-13T12:31:22.567Z,24.51
2024-02-13T12:32:22.742Z,24.51
2024-02-13T12:33:22.879Z,24.51
2024-02-13T12:34:22.970Z,24.51
2024-02-13T12:35:22.994Z,24.51
2024-02-13T12:36:22.811Z,24.51
2024-02-13T12:37:22.837Z,24.51
2024-02-13T12:38:22.853Z,24.51
2024-02-13T12:39:22.839Z,24.52
2024-02-13T12:40:22.890Z,24.51
2024-02-13T12:41:22.994Z,24.51
2024-02-13T12:42:22.925Z,24.52
2024-02-13T12:43:22.964Z,24.51
2024-02-13T12:44:23.019Z,24.50
2024-02-13T12:45:23.023Z,24.51
2024-02-13T12:46:23.056Z,24.51
2024-02-13T12:47:23.117Z,24.51
2024-02-13T12:48:23.231Z,24.50
2024-02-13T12:49:24.190Z,24.50
2024-02-13T12:50:23.424Z,24.50
2024-02-13T12:51:23.356Z,24.50
2024-02-13T12:52:23.674Z,24.50
2024-02-13T12:53:23.364Z,24.49